sensor_id;sensor_type;location;lat;lon;timestamp;temperature;humidity
23869;DHT22;12115;47.128;15.422;2023-04-06T00:01:40;-0.10;85.40
23869;DHT22;12115;47.128;15.422;2023-04-06T00:04:09;-0.10;83.90
23869;DHT22;12115;47.128;15.422;2023-04-06T00:06:36;-0.10;83.20
23869;DHT22;12115;47.128;15.422;2023-04-06T00:09:04;-0.20;83.50
23869;DHT22;12115;47.128;15.422;2023-04-06T00:11:32;-0.20;83.90
23869;DHT22;12115;47.128;15.422;2023-04-06T00:13:59;-0.20;84.60
23869;DHT22;12115;47.128;15.422;2023-04-06T00:16:27;-0.30;82.80
23869;DHT22;12115;47.128;15.422;2023-04-06T00:18:56;-0.40;83.80
23869;DHT22;12115;47.128;15.422;2023-04-06T00:21:24;-0.40;87.00
23869;DHT22;12115;47.128;15.422;2023-04-06T00:23:52;-0.40;86.40
23869;DHT22;12115;47.128;15.422;2023-04-06T00:26:20;-0.50;87.00
23869;DHT22;12115;47.128;15.422;2023-04-06T00:28:48;-0.50;86.30
23869;DHT22;12115;47.128;15.422;2023-04-06T00:31:19;-0.60;85.30
23869;DHT22;12115;47.128;15.422;2023-04-06T00:33:48;-0.50;84.70
23869;DHT22;12115;47.128;15.422;2023-04-06T00:36:15;-0.60;83.20
23869;DHT22;12115;47.128;15.422;2023-04-06T00:38:43;-0.60;82.80
23869;DHT22;12115;47.128;15.422;2023-04-06T00:41:12;-0.70;82.60
23869;DHT22;12115;47.128;15.422;2023-04-06T00:43:40;-0.70;85.10
23869;DHT22;12115;47.128;15.422;2023-04-06T00:46:08;-0.70;83.40
23869;DHT22;12115;47.128;15.422;2023-04-06T00:48:35;-0.70;82.80
23869;DHT22;12115;47.128;15.422;2023-04-06T00:51:03;-0.80;81.80
23869;DHT22;12115;47.128;15.422;2023-04-06T00:53:31;-0.80;81.90
23869;DHT22;12115;47.128;15.422;2023-04-06T00:56:00;-0.80;82.90
23869;DHT22;12115;47.128;15.422;2023-04-06T00:58:33;-0.90;82.80
23869;DHT22;12115;47.128;15.422;2023-04-06T01:01:05;-0.90;80.50
23869;DHT22;12115;47.128;15.422;2023-04-06T01:03:34;-0.90;82.00
23869;DHT22;12115;47.128;15.422;2023-04-06T01:06:02;-1.00;82.70
23869;DHT22;12115;47.128;15.422;2023-04-06T01:08:36;-1.00;82.80
23869;DHT22;12115;47.128;15.422;2023-04-06T01:11:18;-1.10;88.40
23869;DHT22;12115;47.128;15.422;2023-04-06T01:13:47;-1.10;88.20
23869;DHT22;12115;47.128;15.422;2023-04-06T01:16:35;-1.20;87.10
23869;DHT22;12115;47.128;15.422;2023-04-06T01:19:11;-1.10;82.90
23869;DHT22;12115;47.128;15.422;2023-04-06T01:21:46;-1.20;82.20
23869;DHT22;12115;47.128;15.422;2023-04-06T01:24:40;-1.20;81.80
23869;DHT22;12115;47.128;15.422;2023-04-06T01:27:08;-1.20;85.30
23869;DHT22;12115;47.128;15.422;2023-04-06T01:29:51;-1.30;82.40
23869;DHT22;12115;47.128;15.422;2023-04-06T01:32:37;-1.40;81.50
23869;DHT22;12115;47.128;15.422;2023-04-06T01:35:06;-1.40;80.60
23869;DHT22;12115;47.128;15.422;2023-04-06T01:37:40;-1.40;84.50
23869;DHT22;12115;47.128;15.422;2023-04-06T01:40:11;-1.40;86.50
23869;DHT22;12115;47.128;15.422;2023-04-06T01:42:48;-1.40;84.00
23869;DHT22;12115;47.128;15.422;2023-04-06T01:45:24;-1.50;85.60
23869;DHT22;12115;47.128;15.422;2023-04-06T01:47:57;-1.50;89.00
23869;DHT22;12115;47.128;15.422;2023-04-06T01:50:26;-1.50;86.40
23869;DHT22;12115;47.128;15.422;2023-04-06T01:52:54;-1.50;86.70
23869;DHT22;12115;47.128;15.422;2023-04-06T01:55:24;-1.60;87.50
23869;DHT22;12115;47.128;15.422;2023-04-06T01:58:12;-1.60;83.50
23869;DHT22;12115;47.128;15.422;2023-04-06T02:00:40;-1.60;82.70
23869;DHT22;12115;47.128;15.422;2023-04-06T02:03:08;-1.70;85.40
23869;DHT22;12115;47.128;15.422;2023-04-06T02:05:36;-1.70;85.10
23869;DHT22;12115;47.128;15.422;2023-04-06T02:08:16;-1.70;87.80
23869;DHT22;12115;47.128;15.422;2023-04-06T02:10:45;-1.80;87.70
23869;DHT22;12115;47.128;15.422;2023-04-06T02:13:23;-1.80;86.20
23869;DHT22;12115;47.128;15.422;2023-04-06T02:15:52;-1.80;84.00
23869;DHT22;12115;47.128;15.422;2023-04-06T02:18:20;-1.90;82.50
23869;DHT22;12115;47.128;15.422;2023-04-06T02:20:48;-1.90;84.20
23869;DHT22;12115;47.128;15.422;2023-04-06T02:23:16;-1.90;82.60
23869;DHT22;12115;47.128;15.422;2023-04-06T02:25:43;-1.90;86.80
23869;DHT22;12115;47.128;15.422;2023-04-06T02:28:10;-2.00;87.50
23869;DHT22;12115;47.128;15.422;2023-04-06T02:30:38;-2.00;85.10
23869;DHT22;12115;47.128;15.422;2023-04-06T02:33:05;-2.00;84.30
23869;DHT22;12115;47.128;15.422;2023-04-06T02:35:40;-2.00;86.70
23869;DHT22;12115;47.128;15.422;2023-04-06T02:38:08;-2.00;87.90
23869;DHT22;12115;47.128;15.422;2023-04-06T02:40:35;-2.10;87.20
23869;DHT22;12115;47.128;15.422;2023-04-06T02:43:17;-2.10;83.90
23869;DHT22;12115;47.128;15.422;2023-04-06T02:45:46;-2.20;83.60
23869;DHT22;12115;47.128;15.422;2023-04-06T02:48:14;-2.20;83.60
23869;DHT22;12115;47.128;15.422;2023-04-06T02:50:45;-2.20;83.90
23869;DHT22;12115;47.128;15.422;2023-04-06T02:53:13;-2.20;84.00
23869;DHT22;12115;47.128;15.422;2023-04-06T02:55:41;-2.30;85.70
23869;DHT22;12115;47.128;15.422;2023-04-06T02:58:09;-2.30;83.60
23869;DHT22;12115;47.128;15.422;2023-04-06T03:00:43;-2.30;83.50
23869;DHT22;12115;47.128;15.422;2023-04-06T03:03:10;-2.30;82.60
23869;DHT22;12115;47.128;15.422;2023-04-06T03:05:40;-2.40;83.00
23869;DHT22;12115;47.128;15.422;2023-04-06T03:08:08;-2.40;88.30
23869;DHT22;12115;47.128;15.422;2023-04-06T03:10:42;-2.40;86.80
23869;DHT22;12115;47.128;15.422;2023-04-06T03:13:11;-2.50;84.80
23869;DHT22;12115;47.128;15.422;2023-04-06T03:15:47;-2.50;85.20
23869;DHT22;12115;47.128;15.422;2023-04-06T03:18:24;-2.50;88.10
23869;DHT22;12115;47.128;15.422;2023-04-06T03:20:53;-2.50;85.40
23869;DHT22;12115;47.128;15.422;2023-04-06T03:23:30;-2.60;85.20
23869;DHT22;12115;47.128;15.422;2023-04-06T03:26:01;-2.60;83.50
23869;DHT22;12115;47.128;15.422;2023-04-06T03:28:29;-2.60;83.00
23869;DHT22;12115;47.128;15.422;2023-04-06T03:31:01;-2.60;84.90
23869;DHT22;12115;47.128;15.422;2023-04-06T03:33:47;-2.70;84.80
23869;DHT22;12115;47.128;15.422;2023-04-06T03:36:25;-2.70;82.00
23869;DHT22;12115;47.128;15.422;2023-04-06T03:38:56;-2.70;83.40
23869;DHT22;12115;47.128;15.422;2023-04-06T03:41:23;-2.70;85.80
23869;DHT22;12115;47.128;15.422;2023-04-06T03:44:00;-2.70;87.40
23869;DHT22;12115;47.128;15.422;2023-04-06T03:46:28;-2.70;84.30
23869;DHT22;12115;47.128;15.422;2023-04-06T03:48:58;-2.80;88.30
23869;DHT22;12115;47.128;15.422;2023-04-06T03:51:25;-2.80;85.00
23869;DHT22;12115;47.128;15.422;2023-04-06T03:53:53;-2.80;84.40
23869;DHT22;12115;47.128;15.422;2023-04-06T03:56:21;-2.90;85.00
23869;DHT22;12115;47.128;15.422;2023-04-06T03:58:48;-2.80;85.60
23869;DHT22;12115;47.128;15.422;2023-04-06T04:01:20;-2.90;87.00
23869;DHT22;12115;47.128;15.422;2023-04-06T04:03:47;-2.90;90.20
23869;DHT22;12115;47.128;15.422;2023-04-06T04:06:19;-2.90;87.30
23869;DHT22;12115;47.128;15.422;2023-04-06T04:08:46;-2.90;85.90
23869;DHT22;12115;47.128;15.422;2023-04-06T04:11:13;-2.90;84.20
23869;DHT22;12115;47.128;15.422;2023-04-06T04:13:46;-2.90;84.20
23869;DHT22;12115;47.128;15.422;2023-04-06T04:16:14;-3.00;88.30
23869;DHT22;12115;47.128;15.422;2023-04-06T04:18:42;-3.00;87.30
23869;DHT22;12115;47.128;15.422;2023-04-06T04:21:11;-3.00;85.20
23869;DHT22;12115;47.128;15.422;2023-04-06T04:23:38;-3.00;87.70
23869;DHT22;12115;47.128;15.422;2023-04-06T04:26:06;-3.10;90.00
23869;DHT22;12115;47.128;15.422;2023-04-06T04:28:34;-3.10;90.30
23869;DHT22;12115;47.128;15.422;2023-04-06T04:31:01;-3.10;87.20
23869;DHT22;12115;47.128;15.422;2023-04-06T04:33:31;-3.10;89.20
23869;DHT22;12115;47.128;15.422;2023-04-06T04:36:02;-3.10;89.40
23869;DHT22;12115;47.128;15.422;2023-04-06T04:38:37;-3.10;90.50
23869;DHT22;12115;47.128;15.422;2023-04-06T04:41:05;-3.10;88.40
23869;DHT22;12115;47.128;15.422;2023-04-06T04:43:35;-3.20;90.10
23869;DHT22;12115;47.128;15.422;2023-04-06T04:46:04;-3.20;88.20
23869;DHT22;12115;47.128;15.422;2023-04-06T04:48:37;-3.20;90.90
23869;DHT22;12115;47.128;15.422;2023-04-06T04:51:08;-3.20;88.70
23869;DHT22;12115;47.128;15.422;2023-04-06T04:54:02;-3.20;90.10
23869;DHT22;12115;47.128;15.422;2023-04-06T04:56:32;-3.20;86.10
23869;DHT22;12115;47.128;15.422;2023-04-06T04:59:12;-3.20;85.00
23869;DHT22;12115;47.128;15.422;2023-04-06T05:01:47;-3.30;87.50
23869;DHT22;12115;47.128;15.422;2023-04-06T05:04:24;-3.20;92.00
23869;DHT22;12115;47.128;15.422;2023-04-06T05:07:08;-3.20;92.50
23869;DHT22;12115;47.128;15.422;2023-04-06T05:09:39;-3.20;89.40
23869;DHT22;12115;47.128;15.422;2023-04-06T05:12:06;-3.20;87.30
23869;DHT22;12115;47.128;15.422;2023-04-06T05:14:43;-3.20;86.90
23869;DHT22;12115;47.128;15.422;2023-04-06T05:17:15;-3.20;88.70
23869;DHT22;12115;47.128;15.422;2023-04-06T05:19:44;-3.20;93.00
23869;DHT22;12115;47.128;15.422;2023-04-06T05:22:18;-3.10;91.60
23869;DHT22;12115;47.128;15.422;2023-04-06T05:24:53;-3.10;90.70
23869;DHT22;12115;47.128;15.422;2023-04-06T05:27:21;-3.10;91.20
23869;DHT22;12115;47.128;15.422;2023-04-06T05:29:50;-3.00;92.90
23869;DHT22;12115;47.128;15.422;2023-04-06T05:32:19;-3.00;93.10
23869;DHT22;12115;47.128;15.422;2023-04-06T05:34:50;-2.90;92.50
23869;DHT22;12115;47.128;15.422;2023-04-06T05:37:20;-2.90;91.90
23869;DHT22;12115;47.128;15.422;2023-04-06T05:39:48;-2.90;92.50
23869;DHT22;12115;47.128;15.422;2023-04-06T05:42:18;-2.80;94.20
23869;DHT22;12115;47.128;15.422;2023-04-06T05:44:56;-2.70;95.40
23869;DHT22;12115;47.128;15.422;2023-04-06T05:47:25;-2.70;95.40
23869;DHT22;12115;47.128;15.422;2023-04-06T05:50:03;-2.60;98.20
23869;DHT22;12115;47.128;15.422;2023-04-06T05:52:35;-2.50;95.60
23869;DHT22;12115;47.128;15.422;2023-04-06T05:55:03;-2.50;95.70
23869;DHT22;12115;47.128;15.422;2023-04-06T05:57:31;-2.40;96.10
23869;DHT22;12115;47.128;15.422;2023-04-06T05:59:59;-2.30;97.70
23869;DHT22;12115;47.128;15.422;2023-04-06T06:02:38;-2.20;98.70
23869;DHT22;12115;47.128;15.422;2023-04-06T06:05:27;-2.00;98.50
23869;DHT22;12115;47.128;15.422;2023-04-06T06:08:01;-1.90;98.30
23869;DHT22;12115;47.128;15.422;2023-04-06T06:10:30;-1.90;97.20
23869;DHT22;12115;47.128;15.422;2023-04-06T06:12:58;-1.90;96.60
23869;DHT22;12115;47.128;15.422;2023-04-06T06:15:27;-1.70;98.10
23869;DHT22;12115;47.128;15.422;2023-04-06T06:17:55;-1.60;98.70
23869;DHT22;12115;47.128;15.422;2023-04-06T06:20:24;-1.50;98.00
23869;DHT22;12115;47.128;15.422;2023-04-06T06:22:54;-1.30;98.20
23869;DHT22;12115;47.128;15.422;2023-04-06T06:25:22;-1.30;97.90
23869;DHT22;12115;47.128;15.422;2023-04-06T06:27:50;-1.10;98.40
23869;DHT22;12115;47.128;15.422;2023-04-06T06:30:19;-1.00;98.20
23869;DHT22;12115;47.128;15.422;2023-04-06T06:32:51;-0.90;97.90
23869;DHT22;12115;47.128;15.422;2023-04-06T06:35:19;-0.80;97.90
23869;DHT22;12115;47.128;15.422;2023-04-06T06:37:47;-0.60;98.70
23869;DHT22;12115;47.128;15.422;2023-04-06T06:40:18;-0.40;98.90
23869;DHT22;12115;47.128;15.422;2023-04-06T06:42:51;-0.20;98.00
23869;DHT22;12115;47.128;15.422;2023-04-06T06:45:45;-0.20;98.40
23869;DHT22;12115;47.128;15.422;2023-04-06T06:48:13;0.00;98.10
23869;DHT22;12115;47.128;15.422;2023-04-06T06:50:41;0.10;98.10
23869;DHT22;12115;47.128;15.422;2023-04-06T06:53:09;0.20;98.10
23869;DHT22;12115;47.128;15.422;2023-04-06T06:55:37;0.40;98.20
23869;DHT22;12115;47.128;15.422;2023-04-06T06:58:04;0.40;97.90
23869;DHT22;12115;47.128;15.422;2023-04-06T07:00:33;0.50;97.60
23869;DHT22;12115;47.128;15.422;2023-04-06T07:03:02;0.70;98.10
23869;DHT22;12115;47.128;15.422;2023-04-06T07:05:30;1.10;99.10
23869;DHT22;12115;47.128;15.422;2023-04-06T07:07:59;1.30;97.70
23869;DHT22;12115;47.128;15.422;2023-04-06T07:10:51;1.30;97.10
23869;DHT22;12115;47.128;15.422;2023-04-06T07:13:30;1.30;96.90
23869;DHT22;12115;47.128;15.422;2023-04-06T07:16:00;1.60;96.70
23869;DHT22;12115;47.128;15.422;2023-04-06T07:18:28;1.90;94.90
23869;DHT22;12115;47.128;15.422;2023-04-06T07:21:17;2.20;95.60
23869;DHT22;12115;47.128;15.422;2023-04-06T07:23:45;2.60;94.90
23869;DHT22;12115;47.128;15.422;2023-04-06T07:26:16;2.60;94.40
23869;DHT22;12115;47.128;15.422;2023-04-06T07:28:45;2.60;94.50
23869;DHT22;12115;47.128;15.422;2023-04-06T07:31:13;2.80;94.60
23869;DHT22;12115;47.128;15.422;2023-04-06T07:33:40;2.90;93.30
23869;DHT22;12115;47.128;15.422;2023-04-06T07:36:14;3.00;93.20
23869;DHT22;12115;47.128;15.422;2023-04-06T07:38:43;3.20;93.10
23869;DHT22;12115;47.128;15.422;2023-04-06T07:41:10;3.40;93.00
23869;DHT22;12115;47.128;15.422;2023-04-06T07:43:38;3.70;92.70
23869;DHT22;12115;47.128;15.422;2023-04-06T07:46:07;3.80;91.80
23869;DHT22;12115;47.128;15.422;2023-04-06T07:48:35;3.80;91.30
23869;DHT22;12115;47.128;15.422;2023-04-06T07:51:31;4.30;89.30
23869;DHT22;12115;47.128;15.422;2023-04-06T07:53:59;4.60;87.20
23869;DHT22;12115;47.128;15.422;2023-04-06T07:56:27;4.70;88.20
23869;DHT22;12115;47.128;15.422;2023-04-06T07:58:54;4.90;87.90
23869;DHT22;12115;47.128;15.422;2023-04-06T08:04:44;5.60;84.00
23869;DHT22;12115;47.128;15.422;2023-04-06T08:07:15;5.80;83.60
23869;DHT22;12115;47.128;15.422;2023-04-06T08:09:43;6.00;83.70
23869;DHT22;12115;47.128;15.422;2023-04-06T08:12:10;6.30;81.50
23869;DHT22;12115;47.128;15.422;2023-04-06T08:14:38;6.40;79.50
23869;DHT22;12115;47.128;15.422;2023-04-06T08:17:12;6.40;82.30
23869;DHT22;12115;47.128;15.422;2023-04-06T08:19:43;6.70;81.40
23869;DHT22;12115;47.128;15.422;2023-04-06T08:22:11;6.80;78.10
23869;DHT22;12115;47.128;15.422;2023-04-06T08:24:43;6.70;78.90
23869;DHT22;12115;47.128;15.422;2023-04-06T08:27:11;7.10;79.40
23869;DHT22;12115;47.128;15.422;2023-04-06T08:29:44;7.30;77.80
23869;DHT22;12115;47.128;15.422;2023-04-06T08:32:11;7.40;79.80
23869;DHT22;12115;47.128;15.422;2023-04-06T08:34:38;7.50;78.70
23869;DHT22;12115;47.128;15.422;2023-04-06T08:37:06;7.50;76.90
23869;DHT22;12115;47.128;15.422;2023-04-06T08:39:59;7.60;75.90
23869;DHT22;12115;47.128;15.422;2023-04-06T08:42:28;8.10;71.90
23869;DHT22;12115;47.128;15.422;2023-04-06T08:44:59;8.20;74.70
23869;DHT22;12115;47.128;15.422;2023-04-06T08:47:27;8.40;71.70
23869;DHT22;12115;47.128;15.422;2023-04-06T08:49:55;8.60;73.20
23869;DHT22;12115;47.128;15.422;2023-04-06T08:52:25;8.70;71.10
23869;DHT22;12115;47.128;15.422;2023-04-06T08:55:19;8.70;71.60
23869;DHT22;12115;47.128;15.422;2023-04-06T08:58:00;8.60;71.70
23869;DHT22;12115;47.128;15.422;2023-04-06T09:00:28;8.80;71.60
23869;DHT22;12115;47.128;15.422;2023-04-06T09:02:57;9.00;70.10
23869;DHT22;12115;47.128;15.422;2023-04-06T09:05:25;9.30;72.00
23869;DHT22;12115;47.128;15.422;2023-04-06T09:07:53;9.50;71.10
23869;DHT22;12115;47.128;15.422;2023-04-06T09:10:21;9.50;69.80
23869;DHT22;12115;47.128;15.422;2023-04-06T09:12:50;9.70;68.20
23869;DHT22;12115;47.128;15.422;2023-04-06T09:15:20;9.70;70.10
23869;DHT22;12115;47.128;15.422;2023-04-06T09:17:50;9.90;70.10
23869;DHT22;12115;47.128;15.422;2023-04-06T09:20:25;10.20;68.80
23869;DHT22;12115;47.128;15.422;2023-04-06T09:22:54;10.30;66.30
23869;DHT22;12115;47.128;15.422;2023-04-06T09:25:23;10.30;66.60
23869;DHT22;12115;47.128;15.422;2023-04-06T09:28:02;10.30;65.40
23869;DHT22;12115;47.128;15.422;2023-04-06T09:30:30;10.40;65.40
23869;DHT22;12115;47.128;15.422;2023-04-06T09:32:58;10.60;66.50
23869;DHT22;12115;47.128;15.422;2023-04-06T09:35:28;10.80;65.30
23869;DHT22;12115;47.128;15.422;2023-04-06T09:37:58;10.90;66.30
23869;DHT22;12115;47.128;15.422;2023-04-06T09:40:26;11.10;65.80
23869;DHT22;12115;47.128;15.422;2023-04-06T09:42:53;11.00;64.20
23869;DHT22;12115;47.128;15.422;2023-04-06T09:45:25;11.10;65.20
23869;DHT22;12115;47.128;15.422;2023-04-06T09:47:54;11.20;63.50
23869;DHT22;12115;47.128;15.422;2023-04-06T09:50:25;11.30;64.00
23869;DHT22;12115;47.128;15.422;2023-04-06T09:52:54;11.30;62.60
23869;DHT22;12115;47.128;15.422;2023-04-06T09:55:31;11.50;62.80
23869;DHT22;12115;47.128;15.422;2023-04-06T09:58:06;11.60;64.60
23869;DHT22;12115;47.128;15.422;2023-04-06T10:00:48;11.60;58.90
23869;DHT22;12115;47.128;15.422;2023-04-06T10:06:13;11.60;62.10
23869;DHT22;12115;47.128;15.422;2023-04-06T10:08:45;11.80;61.40
23869;DHT22;12115;47.128;15.422;2023-04-06T10:11:15;12.00;62.70
23869;DHT22;12115;47.128;15.422;2023-04-06T10:13:43;12.20;61.40
23869;DHT22;12115;47.128;15.422;2023-04-06T10:16:13;12.40;60.50
23869;DHT22;12115;47.128;15.422;2023-04-06T10:18:47;12.50;59.80
23869;DHT22;12115;47.128;15.422;2023-04-06T10:21:25;12.50;59.30
23869;DHT22;12115;47.128;15.422;2023-04-06T10:24:02;12.60;57.30
23869;DHT22;12115;47.128;15.422;2023-04-06T10:26:34;12.60;58.10
23869;DHT22;12115;47.128;15.422;2023-04-06T10:29:27;12.60;56.50
23869;DHT22;12115;47.128;15.422;2023-04-06T10:31:57;12.40;56.50
23869;DHT22;12115;47.128;15.422;2023-04-06T10:34:50;12.30;59.80
23869;DHT22;12115;47.128;15.422;2023-04-06T10:37:46;12.50;57.80
23869;DHT22;12115;47.128;15.422;2023-04-06T10:40:36;12.70;57.80
23869;DHT22;12115;47.128;15.422;2023-04-06T10:43:12;12.80;56.90
23869;DHT22;12115;47.128;15.422;2023-04-06T10:45:41;12.60;55.70
23869;DHT22;12115;47.128;15.422;2023-04-06T10:51:08;12.70;54.60
23869;DHT22;12115;47.128;15.422;2023-04-06T10:53:36;12.80;57.40
23869;DHT22;12115;47.128;15.422;2023-04-06T10:56:08;13.00;57.10
23869;DHT22;12115;47.128;15.422;2023-04-06T10:58:44;13.20;55.60
23869;DHT22;12115;47.128;15.422;2023-04-06T11:01:16;13.40;56.90
23869;DHT22;12115;47.128;15.422;2023-04-06T11:03:45;13.40;55.30
23869;DHT22;12115;47.128;15.422;2023-04-06T11:06:27;13.40;56.30
23869;DHT22;12115;47.128;15.422;2023-04-06T11:08:56;13.50;55.20
23869;DHT22;12115;47.128;15.422;2023-04-06T11:11:25;13.60;56.00
23869;DHT22;12115;47.128;15.422;2023-04-06T11:13:56;13.60;54.20
23869;DHT22;12115;47.128;15.422;2023-04-06T11:16:32;13.60;53.80
23869;DHT22;12115;47.128;15.422;2023-04-06T11:19:01;13.50;54.00
23869;DHT22;12115;47.128;15.422;2023-04-06T11:21:40;13.50;53.10
23869;DHT22;12115;47.128;15.422;2023-04-06T11:26:40;13.70;52.50
23869;DHT22;12115;47.128;15.422;2023-04-06T11:29:12;13.70;53.30
23869;DHT22;12115;47.128;15.422;2023-04-06T11:31:41;13.70;54.30
23869;DHT22;12115;47.128;15.422;2023-04-06T11:34:13;13.80;53.60
23869;DHT22;12115;47.128;15.422;2023-04-06T11:36:44;13.90;53.80
23869;DHT22;12115;47.128;15.422;2023-04-06T11:39:13;14.00;52.80
23869;DHT22;12115;47.128;15.422;2023-04-06T11:41:40;14.00;53.60
23869;DHT22;12115;47.128;15.422;2023-04-06T11:44:12;13.90;53.00
23869;DHT22;12115;47.128;15.422;2023-04-06T11:46:51;13.70;52.80
23869;DHT22;12115;47.128;15.422;2023-04-06T11:49:19;13.80;53.00
23869;DHT22;12115;47.128;15.422;2023-04-06T11:52:19;13.80;54.10
23869;DHT22;12115;47.128;15.422;2023-04-06T11:54:49;13.90;52.30
23869;DHT22;12115;47.128;15.422;2023-04-06T11:57:18;13.90;53.00
23869;DHT22;12115;47.128;15.422;2023-04-06T11:59:46;14.00;54.70
23869;DHT22;12115;47.128;15.422;2023-04-06T12:02:14;14.20;53.50
23869;DHT22;12115;47.128;15.422;2023-04-06T12:04:41;14.20;52.60
23869;DHT22;12115;47.128;15.422;2023-04-06T12:07:09;14.30;51.60
23869;DHT22;12115;47.128;15.422;2023-04-06T12:09:36;14.30;51.20
23869;DHT22;12115;47.128;15.422;2023-04-06T12:12:04;14.20;51.10
23869;DHT22;12115;47.128;15.422;2023-04-06T12:14:33;14.10;51.50
23869;DHT22;12115;47.128;15.422;2023-04-06T12:17:00;14.00;50.90
23869;DHT22;12115;47.128;15.422;2023-04-06T12:19:28;14.10;52.50
23869;DHT22;12115;47.128;15.422;2023-04-06T12:22:03;14.10;52.00
23869;DHT22;12115;47.128;15.422;2023-04-06T12:24:31;14.00;52.00
23869;DHT22;12115;47.128;15.422;2023-04-06T12:26:59;14.10;51.90
23869;DHT22;12115;47.128;15.422;2023-04-06T12:29:37;14.10;50.90
23869;DHT22;12115;47.128;15.422;2023-04-06T12:32:05;14.10;50.40
23869;DHT22;12115;47.128;15.422;2023-04-06T12:34:33;14.20;50.30
23869;DHT22;12115;47.128;15.422;2023-04-06T12:37:00;14.20;49.30
23869;DHT22;12115;47.128;15.422;2023-04-06T12:39:28;14.30;50.40
23869;DHT22;12115;47.128;15.422;2023-04-06T12:41:56;14.20;50.20
23869;DHT22;12115;47.128;15.422;2023-04-06T12:44:24;14.10;50.80
23869;DHT22;12115;47.128;15.422;2023-04-06T12:46:53;14.30;51.20
23869;DHT22;12115;47.128;15.422;2023-04-06T12:49:41;14.30;50.90
23869;DHT22;12115;47.128;15.422;2023-04-06T12:52:09;14.30;50.40
23869;DHT22;12115;47.128;15.422;2023-04-06T12:54:37;14.40;50.10
23869;DHT22;12115;47.128;15.422;2023-04-06T12:57:05;14.40;50.60
23869;DHT22;12115;47.128;15.422;2023-04-06T12:59:33;14.30;49.70
23869;DHT22;12115;47.128;15.422;2023-04-06T13:02:03;14.40;49.50
23869;DHT22;12115;47.128;15.422;2023-04-06T13:04:31;14.40;50.00
23869;DHT22;12115;47.128;15.422;2023-04-06T13:07:07;14.40;49.30
23869;DHT22;12115;47.128;15.422;2023-04-06T13:09:48;14.40;49.10
23869;DHT22;12115;47.128;15.422;2023-04-06T13:12:17;14.30;49.00
23869;DHT22;12115;47.128;15.422;2023-04-06T13:14:45;14.20;50.20
23869;DHT22;12115;47.128;15.422;2023-04-06T13:17:17;14.30;51.30
23869;DHT22;12115;47.128;15.422;2023-04-06T13:19:48;14.30;50.10
23869;DHT22;12115;47.128;15.422;2023-04-06T13:22:16;14.30;49.00
23869;DHT22;12115;47.128;15.422;2023-04-06T13:24:44;14.20;49.60
23869;DHT22;12115;47.128;15.422;2023-04-06T13:27:12;14.30;49.70
23869;DHT22;12115;47.128;15.422;2023-04-06T13:29:39;14.20;49.30
23869;DHT22;12115;47.128;15.422;2023-04-06T13:32:07;14.20;48.90
23869;DHT22;12115;47.128;15.422;2023-04-06T13:34:37;14.10;49.30
23869;DHT22;12115;47.128;15.422;2023-04-06T13:37:04;14.20;50.20
23869;DHT22;12115;47.128;15.422;2023-04-06T13:39:32;14.30;49.50
23869;DHT22;12115;47.128;15.422;2023-04-06T13:42:01;14.20;49.00
23869;DHT22;12115;47.128;15.422;2023-04-06T13:44:30;14.30;49.00
23869;DHT22;12115;47.128;15.422;2023-04-06T13:47:00;14.30;50.20
23869;DHT22;12115;47.128;15.422;2023-04-06T13:49:28;14.30;50.80
23869;DHT22;12115;47.128;15.422;2023-04-06T13:52:08;14.20;49.50
23869;DHT22;12115;47.128;15.422;2023-04-06T13:54:37;14.10;49.30
23869;DHT22;12115;47.128;15.422;2023-04-06T13:57:41;14.10;50.00
23869;DHT22;12115;47.128;15.422;2023-04-06T14:03:28;14.10;49.20
23869;DHT22;12115;47.128;15.422;2023-04-06T14:05:58;14.10;48.60
23869;DHT22;12115;47.128;15.422;2023-04-06T14:08:41;14.00;48.90
23869;DHT22;12115;47.128;15.422;2023-04-06T14:11:13;14.10;49.70
23869;DHT22;12115;47.128;15.422;2023-04-06T14:13:41;14.10;48.60
23869;DHT22;12115;47.128;15.422;2023-04-06T14:16:09;14.20;49.20
23869;DHT22;12115;47.128;15.422;2023-04-06T14:18:37;14.20;49.70
23869;DHT22;12115;47.128;15.422;2023-04-06T14:21:05;14.20;49.00
23869;DHT22;12115;47.128;15.422;2023-04-06T14:23:33;14.10;48.30
23869;DHT22;12115;47.128;15.422;2023-04-06T14:26:05;14.00;48.20
23869;DHT22;12115;47.128;15.422;2023-04-06T14:28:33;14.00;48.00
23869;DHT22;12115;47.128;15.422;2023-04-06T14:31:08;14.10;48.30
23869;DHT22;12115;47.128;15.422;2023-04-06T14:33:37;14.10;49.10
23869;DHT22;12115;47.128;15.422;2023-04-06T14:36:05;14.10;48.00
23869;DHT22;12115;47.128;15.422;2023-04-06T14:38:33;14.00;48.70
23869;DHT22;12115;47.128;15.422;2023-04-06T14:41:01;14.00;48.70
23869;DHT22;12115;47.128;15.422;2023-04-06T14:43:29;13.80;48.10
23869;DHT22;12115;47.128;15.422;2023-04-06T14:46:03;13.90;48.60
23869;DHT22;12115;47.128;15.422;2023-04-06T14:48:31;13.90;48.70
23869;DHT22;12115;47.128;15.422;2023-04-06T14:51:11;13.90;48.60
23869;DHT22;12115;47.128;15.422;2023-04-06T14:53:39;13.90;48.00
23869;DHT22;12115;47.128;15.422;2023-04-06T14:56:07;13.90;49.30
23869;DHT22;12115;47.128;15.422;2023-04-06T14:58:35;13.80;48.70
23869;DHT22;12115;47.128;15.422;2023-04-06T15:01:02;13.80;48.30
23869;DHT22;12115;47.128;15.422;2023-04-06T15:03:30;13.80;48.40
23869;DHT22;12115;47.128;15.422;2023-04-06T15:05:58;13.70;47.80
23869;DHT22;12115;47.128;15.422;2023-04-06T15:08:25;13.70;48.60
23869;DHT22;12115;47.128;15.422;2023-04-06T15:10:53;13.70;48.70
23869;DHT22;12115;47.128;15.422;2023-04-06T15:13:23;13.70;48.30
23869;DHT22;12115;47.128;15.422;2023-04-06T15:15:51;13.50;48.30
23869;DHT22;12115;47.128;15.422;2023-04-06T15:18:18;13.40;49.00
23869;DHT22;12115;47.128;15.422;2023-04-06T15:20:46;13.40;49.20
23869;DHT22;12115;47.128;15.422;2023-04-06T15:23:13;13.40;48.60
23869;DHT22;12115;47.128;15.422;2023-04-06T15:25:41;13.50;48.00
23869;DHT22;12115;47.128;15.422;2023-04-06T15:28:12;13.40;48.20
23869;DHT22;12115;47.128;15.422;2023-04-06T15:30:39;13.40;47.80
23869;DHT22;12115;47.128;15.422;2023-04-06T15:33:08;13.30;48.90
23869;DHT22;12115;47.128;15.422;2023-04-06T15:35:35;13.20;47.90
23869;DHT22;12115;47.128;15.422;2023-04-06T15:38:12;13.20;48.70
23869;DHT22;12115;47.128;15.422;2023-04-06T15:40:47;13.20;48.70
23869;DHT22;12115;47.128;15.422;2023-04-06T15:43:15;13.10;47.80
23869;DHT22;12115;47.128;15.422;2023-04-06T15:45:43;13.10;48.40
23869;DHT22;12115;47.128;15.422;2023-04-06T15:48:10;13.10;48.20
23869;DHT22;12115;47.128;15.422;2023-04-06T15:50:41;13.10;48.50
23869;DHT22;12115;47.128;15.422;2023-04-06T15:53:08;13.10;48.90
23869;DHT22;12115;47.128;15.422;2023-04-06T15:55:36;13.20;47.90
23869;DHT22;12115;47.128;15.422;2023-04-06T15:58:04;13.20;48.00